sensor_id;sensor_type;location;lat;lon;timestamp;P1;durP1;ratioP1;P2;durP2;ratioP2
67528;SDS011;54366;51.980;5.856;2023-01-06T00:00:37;4.90;;;2.15;;
67528;SDS011;54366;51.980;5.856;2023-01-06T00:03:03;4.95;;;2.10;;
67528;SDS011;54366;51.980;5.856;2023-01-06T00:05:30;7.63;;;2.47;;
67528;SDS011;54366;51.980;5.856;2023-01-06T00:07:57;4.93;;;2.25;;
67528;SDS011;54366;51.980;5.856;2023-01-06T00:10:24;5.53;;;2.60;;
67528;SDS011;54366;51.980;5.856;2023-01-06T00:12:50;5.38;;;2.65;;
67528;SDS011;54366;51.980;5.856;2023-01-06T00:15:17;4.93;;;2.33;;
67528;SDS011;54366;51.980;5.856;2023-01-06T00:17:44;6.05;;;2.70;;
67528;SDS011;54366;51.980;5.856;2023-01-06T00:20:11;4.57;;;2.47;;
67528;SDS011;54366;51.980;5.856;2023-01-06T00:22:38;7.07;;;3.35;;
67528;SDS011;54366;51.980;5.856;2023-01-06T00:25:05;5.18;;;2.67;;
67528;SDS011;54366;51.980;5.856;2023-01-06T00:27:35;4.75;;;2.47;;
67528;SDS011;54366;51.980;5.856;2023-01-06T00:32:28;4.07;;;2.63;;
67528;SDS011;54366;51.980;5.856;2023-01-06T00:34:54;5.15;;;2.67;;
67528;SDS011;54366;51.980;5.856;2023-01-06T00:37:20;4.30;;;2.65;;
67528;SDS011;54366;51.980;5.856;2023-01-06T00:39:47;4.13;;;2.40;;
67528;SDS011;54366;51.980;5.856;2023-01-06T00:42:13;3.85;;;2.75;;
67528;SDS011;54366;51.980;5.856;2023-01-06T00:44:39;4.05;;;2.63;;
67528;SDS011;54366;51.980;5.856;2023-01-06T00:47:07;4.45;;;2.80;;
67528;SDS011;54366;51.980;5.856;2023-01-06T00:49:34;4.40;;;2.15;;
67528;SDS011;54366;51.980;5.856;2023-01-06T00:52:01;5.22;;;2.42;;
67528;SDS011;54366;51.980;5.856;2023-01-06T00:54:28;8.68;;;2.60;;
67528;SDS011;54366;51.980;5.856;2023-01-06T00:56:54;3.10;;;1.92;;
67528;SDS011;54366;51.980;5.856;2023-01-06T00:59:22;4.72;;;2.35;;
67528;SDS011;54366;51.980;5.856;2023-01-06T01:01:51;4.45;;;2.40;;
67528;SDS011;54366;51.980;5.856;2023-01-06T01:04:19;4.60;;;2.53;;
67528;SDS011;54366;51.980;5.856;2023-01-06T01:06:46;5.07;;;2.25;;
67528;SDS011;54366;51.980;5.856;2023-01-06T01:09:24;4.50;;;2.25;;
67528;SDS011;54366;51.980;5.856;2023-01-06T01:11:53;4.18;;;2.40;;
67528;SDS011;54366;51.980;5.856;2023-01-06T01:14:46;4.35;;;2.78;;
67528;SDS011;54366;51.980;5.856;2023-01-06T01:17:18;3.38;;;2.38;;
67528;SDS011;54366;51.980;5.856;2023-01-06T01:19:53;4.57;;;3.03;;
67528;SDS011;54366;51.980;5.856;2023-01-06T01:22:23;6.07;;;2.83;;
67528;SDS011;54366;51.980;5.856;2023-01-06T01:24:51;4.38;;;2.50;;
67528;SDS011;54366;51.980;5.856;2023-01-06T01:27:18;4.07;;;2.28;;
67528;SDS011;54366;51.980;5.856;2023-01-06T01:29:44;4.72;;;2.47;;
67528;SDS011;54366;51.980;5.856;2023-01-06T01:32:10;3.45;;;2.33;;
67528;SDS011;54366;51.980;5.856;2023-01-06T01:34:37;3.60;;;2.42;;
67528;SDS011;54366;51.980;5.856;2023-01-06T01:37:04;3.50;;;2.33;;
67528;SDS011;54366;51.980;5.856;2023-01-06T01:39:30;3.05;;;2.30;;
67528;SDS011;54366;51.980;5.856;2023-01-06T01:41:57;3.22;;;2.00;;
67528;SDS011;54366;51.980;5.856;2023-01-06T01:50:24;2.80;;;2.13;;
67528;SDS011;54366;51.980;5.856;2023-01-06T01:53:15;2.60;;;2.17;;
67528;SDS011;54366;51.980;5.856;2023-01-06T01:55:45;5.32;;;2.55;;
67528;SDS011;54366;51.980;5.856;2023-01-06T01:58:15;4.05;;;2.33;;
67528;SDS011;54366;51.980;5.856;2023-01-06T02:00:47;2.70;;;1.80;;
67528;SDS011;54366;51.980;5.856;2023-01-06T02:03:13;2.15;;;1.95;;
67528;SDS011;54366;51.980;5.856;2023-01-06T02:05:41;3.55;;;2.08;;
67528;SDS011;54366;51.980;5.856;2023-01-06T02:08:30;4.28;;;1.85;;
67528;SDS011;54366;51.980;5.856;2023-01-06T02:11:10;3.42;;;1.95;;
67528;SDS011;54366;51.980;5.856;2023-01-06T02:13:38;3.72;;;2.05;;
67528;SDS011;54366;51.980;5.856;2023-01-06T02:16:23;2.35;;;1.70;;
67528;SDS011;54366;51.980;5.856;2023-01-06T02:19:22;2.38;;;1.50;;
67528;SDS011;54366;51.980;5.856;2023-01-06T02:26:37;3.20;;;1.40;;
67528;SDS011;54366;51.980;5.856;2023-01-06T02:28:34;2.38;;;1.42;;
67528;SDS011;54366;51.980;5.856;2023-01-06T02:34:43;2.80;;;1.08;;
67528;SDS011;54366;51.980;5.856;2023-01-06T02:37:27;1.73;;;0.90;;
67528;SDS011;54366;51.980;5.856;2023-01-06T02:40:33;2.20;;;1.05;;
67528;SDS011;54366;51.980;5.856;2023-01-06T02:43:36;3.15;;;1.27;;
67528;SDS011;54366;51.980;5.856;2023-01-06T02:49:43;1.98;;;0.85;;
67528;SDS011;54366;51.980;5.856;2023-01-06T02:54:21;2.33;;;1.10;;
67528;SDS011;54366;51.980;5.856;2023-01-06T02:56:03;2.50;;;1.00;;
67528;SDS011;54366;51.980;5.856;2023-01-06T02:58:32;2.40;;;1.08;;
67528;SDS011;54366;51.980;5.856;2023-01-06T03:01:22;2.53;;;1.02;;
67528;SDS011;54366;51.980;5.856;2023-01-06T03:03:56;2.42;;;0.77;;
67528;SDS011;54366;51.980;5.856;2023-01-06T03:06:28;1.73;;;1.10;;
67528;SDS011;54366;51.980;5.856;2023-01-06T03:08:58;2.10;;;1.10;;
67528;SDS011;54366;51.980;5.856;2023-01-06T03:11:27;2.72;;;1.00;;
67528;SDS011;54366;51.980;5.856;2023-01-06T03:14:05;1.75;;;0.90;;
67528;SDS011;54366;51.980;5.856;2023-01-06T03:16:37;3.00;;;1.30;;
67528;SDS011;54366;51.980;5.856;2023-01-06T03:19:04;2.70;;;1.45;;
67528;SDS011;54366;51.980;5.856;2023-01-06T03:21:31;2.72;;;1.30;;
67528;SDS011;54366;51.980;5.856;2023-01-06T03:24:01;3.40;;;1.30;;
67528;SDS011;54366;51.980;5.856;2023-01-06T03:26:30;2.80;;;1.25;;
67528;SDS011;54366;51.980;5.856;2023-01-06T03:28:57;2.70;;;1.27;;
67528;SDS011;54366;51.980;5.856;2023-01-06T03:34:42;2.80;;;1.33;;
67528;SDS011;54366;51.980;5.856;2023-01-06T03:37:23;2.67;;;1.42;;
67528;SDS011;54366;51.980;5.856;2023-01-06T03:40:17;3.28;;;1.27;;
67528;SDS011;54366;51.980;5.856;2023-01-06T03:43:06;3.92;;;1.20;;
67528;SDS011;54366;51.980;5.856;2023-01-06T03:45:55;2.65;;;1.10;;
67528;SDS011;54366;51.980;5.856;2023-01-06T03:51:39;2.25;;;0.95;;
67528;SDS011;54366;51.980;5.856;2023-01-06T03:54:28;2.95;;;1.23;;
67528;SDS011;54366;51.980;5.856;2023-01-06T03:57:06;3.05;;;1.23;;
67528;SDS011;54366;51.980;5.856;2023-01-06T03:59:42;2.13;;;0.98;;
67528;SDS011;54366;51.980;5.856;2023-01-06T04:02:12;3.63;;;0.95;;
67528;SDS011;54366;51.980;5.856;2023-01-06T04:04:41;3.80;;;1.00;;
67528;SDS011;54366;51.980;5.856;2023-01-06T04:07:09;2.25;;;0.82;;
67528;SDS011;54366;51.980;5.856;2023-01-06T04:09:39;2.70;;;0.90;;
67528;SDS011;54366;51.980;5.856;2023-01-06T04:12:06;2.63;;;0.75;;
67528;SDS011;54366;51.980;5.856;2023-01-06T04:14:55;2.33;;;0.65;;
67528;SDS011;54366;51.980;5.856;2023-01-06T04:17:22;2.85;;;0.70;;
67528;SDS011;54366;51.980;5.856;2023-01-06T04:19:48;1.52;;;0.80;;
67528;SDS011;54366;51.980;5.856;2023-01-06T04:22:15;2.53;;;0.80;;
67528;SDS011;54366;51.980;5.856;2023-01-06T04:24:41;1.25;;;0.60;;
67528;SDS011;54366;51.980;5.856;2023-01-06T04:27:08;3.08;;;0.80;;
67528;SDS011;54366;51.980;5.856;2023-01-06T04:29:35;3.88;;;0.98;;
67528;SDS011;54366;51.980;5.856;2023-01-06T04:32:01;1.20;;;0.63;;
67528;SDS011;54366;51.980;5.856;2023-01-06T04:34:28;3.15;;;0.63;;
67528;SDS011;54366;51.980;5.856;2023-01-06T04:36:54;2.83;;;0.80;;
67528;SDS011;54366;51.980;5.856;2023-01-06T04:39:21;2.25;;;0.65;;
67528;SDS011;54366;51.980;5.856;2023-01-06T04:41:47;1.77;;;0.60;;
67528;SDS011;54366;51.980;5.856;2023-01-06T04:44:14;1.40;;;0.50;;
67528;SDS011;54366;51.980;5.856;2023-01-06T04:46:40;3.65;;;0.73;;
67528;SDS011;54366;51.980;5.856;2023-01-06T04:49:06;3.13;;;0.75;;
67528;SDS011;54366;51.980;5.856;2023-01-06T04:51:33;3.80;;;0.65;;
67528;SDS011;54366;51.980;5.856;2023-01-06T04:53:59;1.52;;;0.63;;
67528;SDS011;54366;51.980;5.856;2023-01-06T04:56:26;2.47;;;0.82;;
67528;SDS011;54366;51.980;5.856;2023-01-06T04:58:56;2.00;;;0.73;;
67528;SDS011;54366;51.980;5.856;2023-01-06T05:01:23;1.45;;;0.50;;
67528;SDS011;54366;51.980;5.856;2023-01-06T05:03:50;2.80;;;0.77;;
67528;SDS011;54366;51.980;5.856;2023-01-06T05:06:16;1.40;;;0.47;;
67528;SDS011;54366;51.980;5.856;2023-01-06T05:08:44;1.17;;;0.55;;
67528;SDS011;54366;51.980;5.856;2023-01-06T05:11:12;1.05;;;0.60;;
67528;SDS011;54366;51.980;5.856;2023-01-06T05:13:43;3.17;;;0.50;;
67528;SDS011;54366;51.980;5.856;2023-01-06T05:19:05;2.95;;;0.70;;
67528;SDS011;54366;51.980;5.856;2023-01-06T05:21:31;2.28;;;0.70;;
67528;SDS011;54366;51.980;5.856;2023-01-06T05:23:58;2.50;;;0.70;;
67528;SDS011;54366;51.980;5.856;2023-01-06T05:26:25;2.10;;;0.50;;
67528;SDS011;54366;51.980;5.856;2023-01-06T05:28:52;1.70;;;0.70;;
67528;SDS011;54366;51.980;5.856;2023-01-06T05:31:19;2.03;;;0.50;;
67528;SDS011;54366;51.980;5.856;2023-01-06T05:33:46;2.58;;;0.52;;
67528;SDS011;54366;51.980;5.856;2023-01-06T05:36:15;1.98;;;0.43;;
67528;SDS011;54366;51.980;5.856;2023-01-06T05:38:43;2.03;;;0.50;;
67528;SDS011;54366;51.980;5.856;2023-01-06T05:41:10;2.58;;;0.60;;
67528;SDS011;54366;51.980;5.856;2023-01-06T05:43:36;1.42;;;0.50;;
67528;SDS011;54366;51.980;5.856;2023-01-06T05:46:03;0.93;;;0.50;;
67528;SDS011;54366;51.980;5.856;2023-01-06T05:48:31;2.88;;;0.70;;
67528;SDS011;54366;51.980;5.856;2023-01-06T05:51:01;3.30;;;0.60;;
67528;SDS011;54366;51.980;5.856;2023-01-06T05:53:32;1.15;;;0.50;;
67528;SDS011;54366;51.980;5.856;2023-01-06T05:56:00;2.70;;;0.60;;
67528;SDS011;54366;51.980;5.856;2023-01-06T05:58:27;1.33;;;0.52;;
67528;SDS011;54366;51.980;5.856;2023-01-06T06:00:54;2.53;;;0.88;;
67528;SDS011;54366;51.980;5.856;2023-01-06T06:03:20;2.00;;;0.57;;
67528;SDS011;54366;51.980;5.856;2023-01-06T06:05:47;1.55;;;0.55;;
67528;SDS011;54366;51.980;5.856;2023-01-06T06:08:13;2.17;;;0.70;;
67528;SDS011;54366;51.980;5.856;2023-01-06T06:10:39;1.85;;;0.50;;
67528;SDS011;54366;51.980;5.856;2023-01-06T06:13:05;1.70;;;0.65;;
67528;SDS011;54366;51.980;5.856;2023-01-06T06:15:32;0.75;;;0.60;;
67528;SDS011;54366;51.980;5.856;2023-01-06T06:17:59;1.38;;;0.70;;
67528;SDS011;54366;51.980;5.856;2023-01-06T06:20:27;1.20;;;0.70;;
67528;SDS011;54366;51.980;5.856;2023-01-06T06:22:53;1.63;;;0.70;;
67528;SDS011;54366;51.980;5.856;2023-01-06T06:25:20;0.93;;;0.45;;
67528;SDS011;54366;51.980;5.856;2023-01-06T06:27:46;3.22;;;0.70;;
67528;SDS011;54366;51.980;5.856;2023-01-06T06:30:13;2.80;;;0.73;;
67528;SDS011;54366;51.980;5.856;2023-01-06T06:32:41;1.35;;;0.55;;
67528;SDS011;54366;51.980;5.856;2023-01-06T06:35:07;1.95;;;0.68;;
67528;SDS011;54366;51.980;5.856;2023-01-06T06:37:34;1.83;;;0.68;;
67528;SDS011;54366;51.980;5.856;2023-01-06T06:40:00;2.08;;;0.70;;
67528;SDS011;54366;51.980;5.856;2023-01-06T06:42:26;1.70;;;0.60;;
67528;SDS011;54366;51.980;5.856;2023-01-06T06:44:52;0.98;;;0.50;;
67528;SDS011;54366;51.980;5.856;2023-01-06T06:47:19;1.10;;;0.50;;
67528;SDS011;54366;51.980;5.856;2023-01-06T06:49:45;3.53;;;0.75;;
67528;SDS011;54366;51.980;5.856;2023-01-06T06:52:11;1.83;;;0.65;;
67528;SDS011;54366;51.980;5.856;2023-01-06T06:54:38;1.17;;;0.60;;
67528;SDS011;54366;51.980;5.856;2023-01-06T06:57:04;1.00;;;0.73;;
67528;SDS011;54366;51.980;5.856;2023-01-06T06:59:30;0.60;;;0.60;;
67528;SDS011;54366;51.980;5.856;2023-01-06T07:01:56;1.10;;;0.98;;
67528;SDS011;54366;51.980;5.856;2023-01-06T07:04:23;0.70;;;0.50;;
67528;SDS011;54366;51.980;5.856;2023-01-06T07:06:49;1.60;;;0.50;;
67528;SDS011;54366;51.980;5.856;2023-01-06T07:09:15;0.73;;;0.50;;
67528;SDS011;54366;51.980;5.856;2023-01-06T07:11:41;3.30;;;0.77;;
67528;SDS011;54366;51.980;5.856;2023-01-06T07:14:08;0.63;;;0.63;;
67528;SDS011;54366;51.980;5.856;2023-01-06T07:16:34;1.95;;;0.85;;
67528;SDS011;54366;51.980;5.856;2023-01-06T07:19:00;1.42;;;0.88;;
67528;SDS011;54366;51.980;5.856;2023-01-06T07:21:27;2.15;;;0.70;;
67528;SDS011;54366;51.980;5.856;2023-01-06T07:23:53;1.73;;;0.80;;
67528;SDS011;54366;51.980;5.856;2023-01-06T07:26:19;0.77;;;0.70;;
67528;SDS011;54366;51.980;5.856;2023-01-06T07:28:45;1.50;;;0.80;;
67528;SDS011;54366;51.980;5.856;2023-01-06T07:31:12;2.13;;;1.00;;
67528;SDS011;54366;51.980;5.856;2023-01-06T07:33:38;0.93;;;0.82;;
67528;SDS011;54366;51.980;5.856;2023-01-06T07:36:04;1.50;;;0.73;;
67528;SDS011;54366;51.980;5.856;2023-01-06T07:38:31;2.15;;;1.00;;
67528;SDS011;54366;51.980;5.856;2023-01-06T07:40:58;2.53;;;1.33;;
67528;SDS011;54366;51.980;5.856;2023-01-06T07:43:25;1.33;;;1.20;;
67528;SDS011;54366;51.980;5.856;2023-01-06T07:45:52;1.73;;;1.40;;
67528;SDS011;54366;51.980;5.856;2023-01-06T07:48:18;1.80;;;1.60;;
67528;SDS011;54366;51.980;5.856;2023-01-06T07:50:44;1.70;;;1.60;;
67528;SDS011;54366;51.980;5.856;2023-01-06T07:53:11;1.90;;;1.58;;
67528;SDS011;54366;51.980;5.856;2023-01-06T07:55:37;2.13;;;1.92;;
67528;SDS011;54366;51.980;5.856;2023-01-06T07:58:04;2.20;;;2.00;;
67528;SDS011;54366;51.980;5.856;2023-01-06T08:00:34;1.70;;;1.60;;
67528;SDS011;54366;51.980;5.856;2023-01-06T08:03:02;2.75;;;2.55;;
67528;SDS011;54366;51.980;5.856;2023-01-06T08:05:30;2.35;;;2.15;;
67528;SDS011;54366;51.980;5.856;2023-01-06T08:07:56;2.60;;;2.40;;
67528;SDS011;54366;51.980;5.856;2023-01-06T08:10:23;2.42;;;2.30;;
67528;SDS011;54366;51.980;5.856;2023-01-06T08:12:49;2.35;;;2.15;;
67528;SDS011;54366;51.980;5.856;2023-01-06T08:15:15;2.20;;;2.10;;
67528;SDS011;54366;51.980;5.856;2023-01-06T08:17:42;3.20;;;3.00;;
67528;SDS011;54366;51.980;5.856;2023-01-06T08:20:08;2.97;;;2.50;;
67528;SDS011;54366;51.980;5.856;2023-01-06T08:22:35;2.55;;;2.35;;
67528;SDS011;54366;51.980;5.856;2023-01-06T08:25:01;2.25;;;2.15;;
67528;SDS011;54366;51.980;5.856;2023-01-06T08:27:28;2.40;;;2.20;;
67528;SDS011;54366;51.980;5.856;2023-01-06T08:29:54;3.40;;;3.10;;
67528;SDS011;54366;51.980;5.856;2023-01-06T08:32:20;2.75;;;2.55;;
67528;SDS011;54366;51.980;5.856;2023-01-06T08:34:47;2.45;;;2.33;;
67528;SDS011;54366;51.980;5.856;2023-01-06T08:37:13;2.05;;;1.95;;
67528;SDS011;54366;51.980;5.856;2023-01-06T08:39:39;2.10;;;2.00;;
67528;SDS011;54366;51.980;5.856;2023-01-06T08:42:06;2.08;;;1.98;;
67528;SDS011;54366;51.980;5.856;2023-01-06T08:44:32;1.80;;;1.70;;
67528;SDS011;54366;51.980;5.856;2023-01-06T08:46:58;2.35;;;2.15;;
67528;SDS011;54366;51.980;5.856;2023-01-06T08:49:25;2.35;;;2.25;;
67528;SDS011;54366;51.980;5.856;2023-01-06T08:51:51;2.22;;;2.13;;
67528;SDS011;54366;51.980;5.856;2023-01-06T08:54:17;1.85;;;1.75;;
67528;SDS011;54366;51.980;5.856;2023-01-06T08:56:43;2.72;;;2.53;;
67528;SDS011;54366;51.980;5.856;2023-01-06T08:59:14;2.45;;;2.35;;
67528;SDS011;54366;51.980;5.856;2023-01-06T09:01:42;2.40;;;2.20;;
67528;SDS011;54366;51.980;5.856;2023-01-06T09:04:09;2.03;;;1.90;;
67528;SDS011;54366;51.980;5.856;2023-01-06T09:06:36;2.30;;;2.10;;
67528;SDS011;54366;51.980;5.856;2023-01-06T09:09:04;1.98;;;1.83;;
67528;SDS011;54366;51.980;5.856;2023-01-06T09:11:31;1.77;;;1.50;;
67528;SDS011;54366;51.980;5.856;2023-01-06T09:13:58;2.35;;;1.73;;
67528;SDS011;54366;51.980;5.856;2023-01-06T09:16:24;2.75;;;1.77;;
67528;SDS011;54366;51.980;5.856;2023-01-06T09:18:50;2.60;;;1.70;;
67528;SDS011;54366;51.980;5.856;2023-01-06T09:21:17;2.72;;;1.30;;
67528;SDS011;54366;51.980;5.856;2023-01-06T09:23:45;1.55;;;1.15;;
67528;SDS011;54366;51.980;5.856;2023-01-06T09:26:13;2.22;;;1.30;;
67528;SDS011;54366;51.980;5.856;2023-01-06T09:28:40;2.70;;;1.00;;
67528;SDS011;54366;51.980;5.856;2023-01-06T09:31:07;3.05;;;1.00;;
67528;SDS011;54366;51.980;5.856;2023-01-06T09:33:33;1.73;;;0.68;;
67528;SDS011;54366;51.980;5.856;2023-01-06T09:36:00;1.67;;;0.65;;
67528;SDS011;54366;51.980;5.856;2023-01-06T09:38:26;1.27;;;0.80;;
67528;SDS011;54366;51.980;5.856;2023-01-06T09:47:21;3.47;;;1.08;;
67528;SDS011;54366;51.980;5.856;2023-01-06T09:52:39;1.85;;;0.90;;
67528;SDS011;54366;51.980;5.856;2023-01-06T09:55:15;2.83;;;0.80;;
67528;SDS011;54366;51.980;5.856;2023-01-06T09:58:04;3.22;;;1.30;;
67528;SDS011;54366;51.980;5.856;2023-01-06T10:00:40;3.15;;;1.15;;
67528;SDS011;54366;51.980;5.856;2023-01-06T10:03:18;3.83;;;1.33;;
67528;SDS011;54366;51.980;5.856;2023-01-06T10:09:02;2.33;;;0.82;;
67528;SDS011;54366;51.980;5.856;2023-01-06T10:12:45;4.45;;;1.10;;
67528;SDS011;54366;51.980;5.856;2023-01-06T10:15:38;4.55;;;1.00;;
67528;SDS011;54366;51.980;5.856;2023-01-06T10:27:30;4.95;;;1.08;;
67528;SDS011;54366;51.980;5.856;2023-01-06T10:29:41;3.70;;;0.93;;
67528;SDS011;54366;51.980;5.856;2023-01-06T10:32:10;3.80;;;0.82;;
67528;SDS011;54366;51.980;5.856;2023-01-06T10:34:40;4.32;;;0.90;;
67528;SDS011;54366;51.980;5.856;2023-01-06T10:37:22;2.30;;;0.70;;
67528;SDS011;54366;51.980;5.856;2023-01-06T10:40:14;4.65;;;0.93;;
67528;SDS011;54366;51.980;5.856;2023-01-06T10:43:08;3.50;;;0.73;;
67528;SDS011;54366;51.980;5.856;2023-01-06T10:45:42;4.18;;;0.77;;
67528;SDS011;54366;51.980;5.856;2023-01-06T10:48:14;2.60;;;0.60;;
67528;SDS011;54366;51.980;5.856;2023-01-06T10:50:44;3.40;;;0.70;;
67528;SDS011;54366;51.980;5.856;2023-01-06T10:53:11;4.25;;;0.88;;
67528;SDS011;54366;51.980;5.856;2023-01-06T10:58:34;3.80;;;0.90;;
67528;SDS011;54366;51.980;5.856;2023-01-06T11:01:10;3.83;;;0.82;;
67528;SDS011;54366;51.980;5.856;2023-01-06T11:03:40;2.35;;;0.80;;
67528;SDS011;54366;51.980;5.856;2023-01-06T11:06:09;4.35;;;1.00;;
67528;SDS011;54366;51.980;5.856;2023-01-06T11:08:52;4.25;;;0.60;;
67528;SDS011;54366;51.980;5.856;2023-01-06T11:11:19;2.88;;;0.70;;
67528;SDS011;54366;51.980;5.856;2023-01-06T11:13:48;6.78;;;1.17;;
67528;SDS011;54366;51.980;5.856;2023-01-06T11:16:21;3.60;;;0.75;;
67528;SDS011;54366;51.980;5.856;2023-01-06T11:18:55;4.57;;;0.70;;
67528;SDS011;54366;51.980;5.856;2023-01-06T11:21:35;6.10;;;1.27;;
67528;SDS011;54366;51.980;5.856;2023-01-06T11:24:25;6.30;;;1.20;;
67528;SDS011;54366;51.980;5.856;2023-01-06T11:26:53;4.15;;;1.10;;
67528;SDS011;54366;51.980;5.856;2023-01-06T11:29:31;3.00;;;0.73;;
67528;SDS011;54366;51.980;5.856;2023-01-06T11:32:01;2.45;;;0.52;;
67528;SDS011;54366;51.980;5.856;2023-01-06T11:34:56;1.80;;;0.60;;
67528;SDS011;54366;51.980;5.856;2023-01-06T11:40:28;2.45;;;0.60;;
67528;SDS011;54366;51.980;5.856;2023-01-06T11:42:57;2.58;;;0.60;;
67528;SDS011;54366;51.980;5.856;2023-01-06T11:45:37;3.78;;;0.50;;
67528;SDS011;54366;51.980;5.856;2023-01-06T11:48:35;2.90;;;0.60;;
67528;SDS011;54366;51.980;5.856;2023-01-06T11:51:07;6.82;;;0.88;;
67528;SDS011;54366;51.980;5.856;2023-01-06T11:53:38;3.53;;;0.65;;
67528;SDS011;54366;51.980;5.856;2023-01-06T12:01:56;2.28;;;0.50;;
67528;SDS011;54366;51.980;5.856;2023-01-06T12:07:29;3.08;;;0.40;;
67528;SDS011;54366;51.980;5.856;2023-01-06T12:10:18;3.30;;;0.52;;
67528;SDS011;54366;51.980;5.856;2023-01-06T12:12:51;3.63;;;0.73;;
67528;SDS011;54366;51.980;5.856;2023-01-06T12:15:17;4.43;;;0.70;;
67528;SDS011;54366;51.980;5.856;2023-01-06T12:17:46;5.28;;;1.10;;
67528;SDS011;54366;51.980;5.856;2023-01-06T12:20:23;1.52;;;0.50;;
67528;SDS011;54366;51.980;5.856;2023-01-06T12:23:06;4.32;;;1.23;;
67528;SDS011;54366;51.980;5.856;2023-01-06T12:25:52;3.67;;;0.70;;
67528;SDS011;54366;51.980;5.856;2023-01-06T12:28:23;3.15;;;0.70;;
67528;SDS011;54366;51.980;5.856;2023-01-06T12:31:46;1.95;;;0.47;;
67528;SDS011;54366;51.980;5.856;2023-01-06T12:34:02;2.72;;;0.60;;
67528;SDS011;54366;51.980;5.856;2023-01-06T12:39:19;3.17;;;0.68;;
67528;SDS011;54366;51.980;5.856;2023-01-06T12:42:01;2.45;;;0.55;;
67528;SDS011;54366;51.980;5.856;2023-01-06T12:44:56;1.85;;;0.30;;
67528;SDS011;54366;51.980;5.856;2023-01-06T12:47:38;3.40;;;0.60;;
67528;SDS011;54366;51.980;5.856;2023-01-06T12:50:32;2.53;;;0.40;;
67528;SDS011;54366;51.980;5.856;2023-01-06T12:53:25;2.17;;;0.40;;
67528;SDS011;54366;51.980;5.856;2023-01-06T12:56:02;2.00;;;0.40;;
67528;SDS011;54366;51.980;5.856;2023-01-06T12:59:16;2.13;;;0.32;;
67528;SDS011;54366;51.980;5.856;2023-01-06T13:02:31;1.65;;;0.40;;
67528;SDS011;54366;51.980;5.856;2023-01-06T13:08:34;1.48;;;0.40;;
67528;SDS011;54366;51.980;5.856;2023-01-06T13:14:30;1.20;;;0.47;;
67528;SDS011;54366;51.980;5.856;2023-01-06T13:17:27;2.70;;;0.50;;
67528;SDS011;54366;51.980;5.856;2023-01-06T13:20:24;2.35;;;0.30;;
67528;SDS011;54366;51.980;5.856;2023-01-06T13:23:10;0.77;;;0.20;;
67528;SDS011;54366;51.980;5.856;2023-01-06T13:26:44;3.10;;;0.40;;
67528;SDS011;54366;51.980;5.856;2023-01-06T13:29:14;2.22;;;0.60;;
67528;SDS011;54366;51.980;5.856;2023-01-06T13:35:23;2.33;;;0.52;;
67528;SDS011;54366;51.980;5.856;2023-01-06T13:41:03;2.90;;;0.60;;
67528;SDS011;54366;51.980;5.856;2023-01-06T13:43:36;5.13;;;0.73;;
67528;SDS011;54366;51.980;5.856;2023-01-06T13:46:04;2.58;;;0.40;;
67528;SDS011;54366;51.980;5.856;2023-01-06T13:48:37;1.35;;;0.40;;
67528;SDS011;54366;51.980;5.856;2023-01-06T13:51:06;3.45;;;0.60;;
67528;SDS011;54366;51.980;5.856;2023-01-06T13:53:37;2.17;;;0.50;;
67528;SDS011;54366;51.980;5.856;2023-01-06T14:07:29;2.15;;;0.25;;
67528;SDS011;54366;51.980;5.856;2023-01-06T14:09:57;4.45;;;0.60;;
67528;SDS011;54366;51.980;5.856;2023-01-06T14:12:25;2.55;;;0.50;;
67528;SDS011;54366;51.980;5.856;2023-01-06T14:14:58;1.27;;;0.35;;
67528;SDS011;54366;51.980;5.856;2023-01-06T14:17:37;1.60;;;0.32;;
67528;SDS011;54366;51.980;5.856;2023-01-06T14:20:17;0.90;;;0.30;;
67528;SDS011;54366;51.980;5.856;2023-01-06T14:23:00;0.73;;;0.28;;
67528;SDS011;54366;51.980;5.856;2023-01-06T14:25:33;0.73;;;0.20;;
67528;SDS011;54366;51.980;5.856;2023-01-06T14:28:05;1.05;;;0.20;;
67528;SDS011;54366;51.980;5.856;2023-01-06T14:30:33;1.55;;;0.40;;
67528;SDS011;54366;51.980;5.856;2023-01-06T14:33:02;1.08;;;0.30;;
67528;SDS011;54366;51.980;5.856;2023-01-06T14:35:47;1.95;;;0.32;;
67528;SDS011;54366;51.980;5.856;2023-01-06T14:41:24;1.35;;;0.40;;
67528;SDS011;54366;51.980;5.856;2023-01-06T14:44:01;1.17;;;0.30;;
67528;SDS011;54366;51.980;5.856;2023-01-06T14:46:32;1.92;;;0.35;;
67528;SDS011;54366;51.980;5.856;2023-01-06T14:49:11;0.95;;;0.20;;
67528;SDS011;54366;51.980;5.856;2023-01-06T14:51:42;1.20;;;0.30;;
67528;SDS011;54366;51.980;5.856;2023-01-06T14:54:43;1.20;;;0.40;;
67528;SDS011;54366;51.980;5.856;2023-01-06T14:57:03;0.98;;;0.20;;
67528;SDS011;54366;51.980;5.856;2023-01-06T14:59:30;1.55;;;0.30;;
67528;SDS011;54366;51.980;5.856;2023-01-06T15:02:01;1.65;;;0.32;;
67528;SDS011;54366;51.980;5.856;2023-01-06T15:04:36;1.10;;;0.40;;
67528;SDS011;54366;51.980;5.856;2023-01-06T15:07:23;1.90;;;0.47;;
67528;SDS011;54366;51.980;5.856;2023-01-06T15:09:50;1.95;;;0.50;;
67528;SDS011;54366;51.980;5.856;2023-01-06T15:12:29;1.42;;;0.40;;
67528;SDS011;54366;51.980;5.856;2023-01-06T15:15:31;1.33;;;0.55;;
67528;SDS011;54366;51.980;5.856;2023-01-06T15:17:51;2.78;;;0.60;;
67528;SDS011;54366;51.980;5.856;2023-01-06T15:20:19;2.38;;;0.57;;
67528;SDS011;54366;51.980;5.856;2023-01-06T15:22:52;1.63;;;0.50;;
67528;SDS011;54366;51.980;5.856;2023-01-06T15:25:19;1.75;;;0.40;;
67528;SDS011;54366;51.980;5.856;2023-01-06T15:27:47;1.52;;;0.40;;
67528;SDS011;54366;51.980;5.856;2023-01-06T15:30:15;2.90;;;0.70;;
67528;SDS011;54366;51.980;5.856;2023-01-06T15:32:43;1.70;;;0.65;;
67528;SDS011;54366;51.980;5.856;2023-01-06T15:35:11;1.05;;;0.47;;
67528;SDS011;54366;51.980;5.856;2023-01-06T15:37:42;2.63;;;0.70;;
67528;SDS011;54366;51.980;5.856;2023-01-06T15:40:11;3.03;;;0.65;;
67528;SDS011;54366;51.980;5.856;2023-01-06T15:42:43;1.90;;;0.63;;
67528;SDS011;54366;51.980;5.856;2023-01-06T15:48:07;2.30;;;0.60;;
67528;SDS011;54366;51.980;5.856;2023-01-06T15:50:37;1.90;;;0.70;;
67528;SDS011;54366;51.980;5.856;2023-01-06T15:53:04;2.65;;;0.63;;
67528;SDS011;54366;51.980;5.856;2023-01-06T15:55:38;1.58;;;0.80;;
67528;SDS011;54366;51.980;5.856;2023-01-06T15:58:13;1.92;;;0.85;;
67528;SDS011;54366;51.980;5.856;2023-01-06T16:00:51;2.47;;;0.90;;
67528;SDS011;54366;51.980;5.856;2023-01-06T16:03:46;2.58;;;0.95;;
67528;SDS011;54366;51.980;5.856;2023-01-06T16:06:30;2.45;;;0.90;;
67528;SDS011;54366;51.980;5.856;2023-01-06T16:14:50;1.75;;;0.70;;
67528;SDS011;54366;51.980;5.856;2023-01-06T16:17:21;1.40;;;0.80;;
67528;SDS011;54366;51.980;5.856;2023-01-06T16:19:55;1.55;;;1.00;;
67528;SDS011;54366;51.980;5.856;2023-01-06T16:22:28;2.38;;;1.15;;
67528;SDS011;54366;51.980;5.856;2023-01-06T16:25:01;3.58;;;1.35;;
67528;SDS011;54366;51.980;5.856;2023-01-06T16:27:46;3.05;;;1.65;;
67528;SDS011;54366;51.980;5.856;2023-01-06T16:30:21;3.90;;;1.83;;
67528;SDS011;54366;51.980;5.856;2023-01-06T16:32:51;2.97;;;1.90;;
67528;SDS011;54366;51.980;5.856;2023-01-06T16:35:24;4.80;;;1.90;;
67528;SDS011;54366;51.980;5.856;2023-01-06T16:37:52;4.10;;;1.98;;
67528;SDS011;54366;51.980;5.856;2023-01-06T16:40:19;4.00;;;2.30;;
67528;SDS011;54366;51.980;5.856;2023-01-06T16:42:48;4.00;;;2.55;;
67528;SDS011;54366;51.980;5.856;2023-01-06T16:45:31;5.03;;;2.80;;
67528;SDS011;54366;51.980;5.856;2023-01-06T16:48:05;3.58;;;2.40;;
67528;SDS011;54366;51.980;5.856;2023-01-06T16:50:32;4.35;;;2.63;;
67528;SDS011;54366;51.980;5.856;2023-01-06T16:55:55;4.75;;;2.85;;
67528;SDS011;54366;51.980;5.856;2023-01-06T16:58:26;4.63;;;2.63;;
67528;SDS011;54366;51.980;5.856;2023-01-06T17:00:54;6.78;;;3.10;;
67528;SDS011;54366;51.980;5.856;2023-01-06T17:03:24;5.05;;;2.75;;
67528;SDS011;54366;51.980;5.856;2023-01-06T17:05:55;3.83;;;2.80;;